• Join FlightAware (Why Join?)
  • Login
  • US Flag 
06:55AM EST


 

Airport Tracker/Info


-or-


 

Live Flight TrackerFlight Track Log ✈ FIN666 ✈ 18-Nov-2013 ✈ EKCH / CPH - EFHK / HEL

Flight Track Log - Related Links

Times and Time Zones

All times are in EST time to prevent confusion due to time zone crossing. See the FIN666 flight status page for this flight to view local times or setup timezone preferences in your user account.

Time Position Orientation Groundspeed Altitude Reporting Facility
EST Latitude Longitude Course Direction KTS MPH feet Rate Location/Type
07:20AM 55.8556 13.1474 49° Northeast  Level Estimated
07:21AM 55.9343 13.3125 50° Northeast  Level Estimated
07:22AM 56.0129 13.4784 50° Northeast  Level Estimated
07:23AM 56.0912 13.6449 50° Northeast  Level Estimated
07:24AM 56.1693 13.8120 50° Northeast  Level Estimated
07:25AM 56.2472 13.9799 50° Northeast  Level Estimated
07:26AM 56.3249 14.1484 50° Northeast  Level Estimated
07:27AM 56.4023 14.3176 50° Northeast  Level Estimated
07:28AM 56.4795 14.4875 51° Northeast  Level Estimated
07:29AM 56.5564 14.6581 51° Northeast  Level Estimated
07:30AM 56.6332 14.8294 51° Northeast  Level Estimated
07:31AM 56.7097 15.0014 51° Northeast  Level Estimated
07:32AM 56.7859 15.1741 51° Northeast  Level Estimated
07:33AM 56.8619 15.3475 51° Northeast  Level Estimated
07:34AM 56.9377 15.5216 51° Northeast  Level Estimated
07:35AM 57.0132 15.6964 52° Northeast  Level Estimated
07:36AM 57.0885 15.8719 52° Northeast  Level Estimated
07:37AM 57.1647 16.0509 52° Northeast  Level Estimated
07:38AM 57.2406 16.2306 52° Northeast  Level Estimated
07:39AM 57.3163 16.4110 52° Northeast  Level Estimated
07:40AM 57.3917 16.5921 52° Northeast  Level Estimated
07:41AM 57.4669 16.7741 52° Northeast  Level Estimated
07:42AM 57.5418 16.9567 53° Northeast  Level Estimated
07:43AM 57.6164 17.1401 53° Northeast  Level Estimated
07:44AM 57.6908 17.3243 53° Northeast  Level Estimated
07:45AM 57.7649 17.5092 53° Northeast  Level Estimated
07:46AM 57.8387 17.6949 53° Northeast  Level Estimated
07:47AM 57.9122 17.8813 53° Northeast  Level Estimated
07:48AM 57.9855 18.0685 54° Northeast  Level Estimated
07:49AM 58.0585 18.2565 54° Northeast  Level Estimated
07:50AM 58.1312 18.4452 54° Northeast  Level Estimated
07:51AM 58.2037 18.6348 54° Northeast  Level Estimated
07:52AM 58.2758 18.8250 54° Northeast  Level Estimated
07:53AM 58.3477 19.0161 54° Northeast  Level Estimated
07:54AM 58.4193 19.2079 54° Northeast  Level Estimated
07:55AM 58.4906 19.4006 55° Northeast  Level Estimated
07:56AM 58.5616 19.5940 55° Northeast  Level Estimated
07:57AM 58.6323 19.7881 55° Northeast  Level Estimated
07:58AM 58.7028 19.9831 55° Northeast  Level Estimated
07:59AM 58.7729 20.1789 55° Northeast  Level Estimated
08:00AM 58.8427 20.3754 55° Northeast  Level Estimated
08:01AM 58.9123 20.5728 56° Northeast  Level Estimated
08:02AM 58.9815 20.7709 56° Northeast  Level Estimated
08:03AM 59.0504 20.9698 56° Northeast  Level Estimated
08:04AM 59.1191 21.1695 56° Northeast  Level Estimated
08:05AM 59.1874 21.3701 56° Northeast  Level Estimated
08:06AM 59.2554 21.5714 56° Northeast  Level Estimated
08:07AM 59.3231 21.7735 57° Northeast  Level Estimated
08:08AM 59.3905 21.9765 57° Northeast  Level Estimated
08:09AM 59.4575 22.1802 57° Northeast  Level Estimated
08:10AM 59.5243 22.3848 57° Northeast  Level Estimated
08:11AM 59.5907 22.5901 57° Northeast  Level Estimated
08:12AM 59.6568 22.7963 58° Northeast  Level Estimated
08:13AM 59.7226 23.0033 58° Northeast  Level Estimated
08:14AM 59.7881 23.2111 58° Northeast  Level Estimated
08:15AM 59.8532 23.4197 58° Northeast  Level Estimated
08:16AM 59.9180 23.6291 58° Northeast  Level Estimated
08:17AM 59.9824 23.8394 58° Northeast  Level Estimated
08:18AM 60.0465 24.0504 59° Northeast  Level Estimated
08:19AM 60.1103 24.2623 59° Northeast  Level Estimated
08:20AM 60.1738 24.4750 59° Northeast  Level Estimated
08:21AM 60.2369 24.6886 59° Northeast  Level Estimated
08:22AM 60.2996 24.9029 59° Northeast  Level Estimated
08:23AM 60.3172 24.9633 60° Northeast  Level Estimated
08:24AM 60.3172 24.9633 37° Northeast  Level Estimated
08:25AM 60.3172 24.9633 37° Northeast  Level Estimated
08:26AM 60.3172 24.9633 37° Northeast  Level Estimated
08:27AM 60.3172 24.9633 37° Northeast  Level Estimated
08:28AM 60.3172 24.9633 37° Northeast  Level Estimated
08:29AM 60.3172 24.9633 37° Northeast  Level Estimated
08:30AM 60.3172 24.9633 37° Northeast  Level Estimated
08:31AM 60.3172 24.9633 37° Northeast  Level Estimated
08:32AM 60.3172 24.9633 37° Northeast  Level Estimated
08:33AM 60.3172 24.9633 37° Northeast  Level Estimated
08:34AM 60.3172 24.9633 37° Northeast  Level Estimated